createdAt,value
2022-10-28T00:02:21.127Z,12.62
2022-10-28T00:07:34.334Z,12.65
2022-10-28T00:12:39.603Z,12.90
2022-10-28T00:17:37.760Z,12.77
2022-10-28T00:22:38.738Z,12.93
2022-10-28T00:27:38.926Z,12.87
2022-10-28T00:32:39.235Z,12.64
2022-10-28T00:37:45.189Z,12.77
2022-10-28T00:42:46.945Z,12.75
2022-10-28T00:47:52.553Z,12.94
2022-10-28T00:53:08.497Z,12.83
2022-10-28T00:58:09.874Z,12.53
2022-10-28T01:03:12.209Z,12.84
2022-10-28T01:08:14.570Z,12.64
2022-10-28T01:13:13.314Z,12.92
2022-10-28T01:18:24.354Z,12.96
2022-10-28T01:24:01.658Z,12.53
2022-10-28T01:29:37.731Z,12.76
2022-10-28T01:34:50.302Z,12.25
2022-10-28T01:39:55.578Z,12.68
2022-10-28T01:45:06.680Z,12.30
2022-10-28T01:50:32.452Z,12.35
2022-10-28T01:55:42.339Z,11.84
2022-10-28T02:00:44.954Z,11.88
2022-10-28T02:05:56.359Z,11.89
2022-10-28T02:11:16.168Z,12.15
2022-10-28T02:16:34.591Z,11.87
2022-10-28T02:21:50.763Z,11.62
2022-10-28T02:27:25.098Z,11.33
2022-10-28T02:32:26.318Z,11.34
2022-10-28T02:37:32.444Z,11.28
2022-10-28T02:42:39.875Z,11.45
2022-10-28T02:47:45.520Z,11.37
2022-10-28T02:53:03.712Z,11.55
2022-10-28T02:58:07.742Z,11.41
2022-10-28T03:03:07.134Z,11.55
2022-10-28T03:08:17.447Z,11.46
2022-10-28T03:13:17.264Z,11.54
2022-10-28T03:18:15.773Z,11.51
2022-10-28T03:23:29.215Z,11.48
2022-10-28T03:28:35.118Z,11.45
2022-10-28T03:33:37.398Z,11.51
2022-10-28T03:38:36.783Z,11.46
2022-10-28T03:43:38.169Z,11.60
2022-10-28T03:48:38.139Z,11.32
2022-10-28T03:53:37.258Z,11.51
2022-10-28T03:58:43.148Z,11.42
2022-10-28T04:03:47.286Z,11.33
2022-10-28T04:08:54.987Z,11.35
2022-10-28T04:13:54.772Z,11.28
2022-10-28T04:18:56.801Z,11.14
2022-10-28T04:23:56.138Z,11.07
2022-10-28T04:28:56.873Z,10.88
2022-10-28T04:33:55.995Z,10.82
2022-10-28T04:38:57.571Z,10.82
2022-10-28T04:43:59.221Z,10.87
2022-10-28T04:49:04.177Z,10.69
2022-10-28T04:54:02.580Z,10.83
2022-10-28T04:59:02.685Z,11.04
2022-10-28T05:04:07.256Z,10.86
2022-10-28T05:09:12.359Z,10.94
2022-10-28T05:14:13.891Z,10.87
2022-10-28T05:19:14.725Z,10.94
2022-10-28T05:24:17.963Z,10.99
2022-10-28T05:29:21.311Z,10.91
2022-10-28T05:34:18.716Z,10.96
2022-10-28T05:39:16.314Z,11.14
2022-10-28T05:44:15.747Z,11.16
2022-10-28T05:49:24.156Z,11.23
2022-10-28T05:54:26.561Z,11.21
2022-10-28T05:59:28.352Z,10.42
2022-10-28T06:04:28.817Z,10.48
2022-10-28T06:14:56.077Z,10.80
2022-10-28T06:19:58.028Z,11.51
2022-10-28T06:24:57.871Z,11.44
2022-10-28T06:29:56.214Z,11.76
2022-10-28T06:34:56.504Z,12.05
2022-10-28T06:40:11.270Z,12.02
2022-10-28T06:45:18.700Z,12.02
2022-10-28T06:50:21.415Z,12.41
2022-10-28T06:55:28.524Z,12.43
2022-10-28T07:00:34.195Z,12.67
2022-10-28T07:05:42.991Z,12.76
2022-10-28T07:10:45.459Z,12.97
2022-10-28T07:15:45.728Z,13.10
2022-10-28T07:21:00.158Z,13.32
2022-10-28T07:26:02.708Z,13.53
2022-10-28T07:31:02.310Z,13.49
2022-10-28T07:36:03.971Z,13.68
2022-10-28T07:41:13.727Z,13.69
2022-10-28T07:46:14.279Z,13.87
2022-10-28T07:51:15.290Z,13.89
2022-10-28T07:56:14.914Z,14.07
2022-10-28T08:01:18.283Z,14.28
2022-10-28T08:06:23.524Z,14.36
2022-10-28T08:11:27.013Z,14.55
2022-10-28T08:16:30.312Z,14.83
2022-10-28T08:21:39.412Z,15.16
2022-10-28T08:26:37.500Z,15.15
2022-10-28T08:31:41.113Z,15.27
2022-10-28T08:36:40.526Z,15.60
2022-10-28T08:41:48.891Z,15.97
2022-10-28T08:47:14.554Z,16.14
2022-10-28T08:52:51.881Z,16.18
2022-10-28T08:57:53.945Z,16.43
2022-10-28T09:03:16.970Z,16.36
2022-10-28T09:08:24.944Z,16.53
2022-10-28T09:13:25.182Z,16.96
2022-10-28T09:18:59.318Z,17.08
2022-10-28T09:23:59.099Z,16.90
2022-10-28T09:29:20.317Z,17.25
2022-10-28T09:34:38.033Z,17.16
2022-10-28T09:39:57.970Z,17.64
2022-10-28T09:45:02.429Z,17.73
2022-10-28T09:50:06.572Z,17.88
2022-10-28T09:55:14.864Z,17.82
2022-10-28T10:00:14.477Z,17.96
2022-10-28T10:05:16.941Z,18.22
2022-10-28T10:10:24.005Z,18.25
2022-10-28T10:15:36.320Z,18.52
2022-10-28T10:20:59.956Z,18.70
2022-10-28T10:26:19.701Z,18.81
2022-10-28T10:31:33.559Z,18.66
2022-10-28T10:36:37.772Z,18.81
2022-10-28T10:41:40.421Z,19.18
2022-10-28T10:46:40.759Z,19.02
2022-10-28T10:51:42.011Z,19.35
2022-10-28T10:56:45.883Z,19.50
2022-10-28T11:01:45.602Z,19.30
2022-10-28T11:06:44.813Z,19.47
2022-10-28T11:11:43.493Z,19.58
2022-10-28T11:16:54.442Z,19.77
2022-10-28T11:22:05.335Z,20.11
2022-10-28T11:27:12.157Z,20.22
2022-10-28T11:32:26.923Z,20.31
2022-10-28T11:37:46.209Z,20.47
2022-10-28T11:42:54.366Z,20.58
2022-10-28T11:48:15.868Z,20.17
2022-10-28T11:53:16.674Z,20.53
2022-10-28T11:58:29.595Z,20.53
2022-10-28T12:03:52.922Z,20.69
2022-10-28T12:09:09.544Z,20.82
2022-10-28T12:14:27.675Z,20.63
2022-10-28T12:19:33.140Z,20.53
2022-10-28T12:24:37.350Z,20.56
2022-10-28T12:29:40.077Z,20.66
2022-10-28T12:34:54.476Z,20.91
2022-10-28T12:40:32.374Z,20.88
2022-10-28T12:45:35.835Z,20.79
2022-10-28T12:50:46.376Z,21.09
2022-10-28T12:55:50.357Z,20.96
2022-10-28T13:01:36.813Z,20.88
2022-10-28T13:06:56.516Z,21.12
2022-10-28T13:12:06.965Z,21.16
2022-10-28T13:17:31.269Z,21.25
2022-10-28T13:22:47.127Z,21.22
2022-10-28T13:28:03.668Z,20.96
2022-10-28T13:33:14.678Z,21.01
2022-10-28T13:38:26.457Z,21.13
2022-10-28T13:44:08.259Z,21.18
2022-10-28T13:49:27.016Z,21.38
2022-10-28T13:54:36.186Z,21.36
2022-10-28T13:59:52.742Z,21.19
2022-10-28T14:05:04.206Z,21.00
2022-10-28T14:10:22.035Z,21.27
2022-10-28T14:15:26.716Z,21.04
2022-10-28T14:20:30.523Z,20.97
2022-10-28T14:25:48.293Z,20.97
2022-10-28T14:31:09.296Z,20.63
2022-10-28T14:36:32.491Z,20.40
2022-10-28T14:41:47.761Z,20.38
2022-10-28T14:46:52.259Z,20.19
2022-10-28T14:51:51.215Z,20.02
2022-10-28T14:56:54.381Z,19.68
2022-10-28T15:02:18.932Z,19.40
2022-10-28T15:07:25.062Z,19.38
2022-10-28T15:12:34.563Z,18.94
2022-10-28T15:17:44.474Z,18.82
2022-10-28T15:29:12.980Z,18.57
2022-10-28T15:34:23.685Z,18.49
2022-10-28T15:39:22.912Z,18.49
2022-10-28T15:44:40.307Z,18.38
2022-10-28T15:49:46.834Z,17.99
2022-10-28T15:54:55.944Z,18.06
2022-10-28T16:00:38.808Z,18.08
2022-10-28T16:05:40.384Z,17.96
2022-10-28T16:10:46.192Z,17.49
2022-10-28T16:15:54.380Z,17.54
2022-10-28T16:21:08.807Z,17.51
2022-10-28T16:26:24.594Z,17.39
2022-10-28T16:31:30.510Z,17.42
2022-10-28T16:36:32.587Z,17.38
2022-10-28T16:41:34.603Z,17.08
2022-10-28T16:52:32.480Z,17.03
2022-10-28T16:57:35.579Z,16.81
2022-10-28T17:02:38.726Z,16.71
2022-10-28T17:07:41.064Z,16.77
2022-10-28T17:12:52.663Z,16.44
2022-10-28T17:17:54.606Z,16.42
2022-10-28T17:23:05.075Z,16.44
2022-10-28T17:28:07.293Z,16.37
2022-10-28T17:33:06.697Z,16.28
2022-10-28T17:38:10.544Z,16.12
2022-10-28T17:43:15.574Z,15.94
2022-10-28T17:48:22.830Z,15.96
2022-10-28T17:53:27.004Z,16.07
2022-10-28T17:58:29.760Z,15.89
2022-10-28T18:03:35.614Z,15.87
2022-10-28T18:08:41.985Z,15.64
2022-10-28T18:13:46.351Z,15.52
2022-10-28T18:18:55.638Z,15.53
2022-10-28T18:24:04.157Z,15.43
2022-10-28T18:29:04.195Z,15.62
2022-10-28T18:34:03.450Z,15.42
2022-10-28T18:39:07.521Z,15.44
2022-10-28T18:44:14.385Z,15.18
2022-10-28T18:49:23.447Z,15.11
2022-10-28T18:54:29.776Z,14.86
2022-10-28T18:59:31.627Z,14.84
2022-10-28T19:04:31.624Z,14.74
2022-10-28T19:09:37.799Z,14.84
2022-10-28T19:14:39.184Z,14.47
2022-10-28T19:19:39.692Z,14.52
2022-10-28T19:24:37.851Z,14.59
2022-10-28T19:29:38.137Z,14.41
2022-10-28T19:34:37.433Z,14.20
2022-10-28T19:39:38.416Z,14.41
2022-10-28T19:44:42.707Z,14.07
2022-10-28T19:49:44.500Z,14.10
2022-10-28T19:54:50.410Z,13.93
2022-10-28T20:00:11.481Z,13.89
2022-10-28T20:05:13.727Z,14.19
2022-10-28T20:10:20.767Z,13.74
2022-10-28T20:15:23.628Z,14.09
2022-10-28T20:20:25.612Z,13.93
2022-10-28T20:25:29.737Z,13.84
2022-10-28T20:30:29.193Z,13.79
2022-10-28T20:35:30.137Z,13.83
2022-10-28T20:40:29.007Z,13.82
2022-10-28T20:45:31.600Z,13.67
2022-10-28T20:50:36.673Z,13.48
2022-10-28T20:55:53.226Z,13.49
2022-10-28T21:00:54.328Z,13.55
2022-10-28T21:05:54.522Z,13.29
2022-10-28T21:10:55.676Z,13.15
2022-10-28T21:15:57.945Z,13.24
2022-10-28T21:21:05.349Z,13.14
2022-10-28T21:26:06.961Z,13.15
2022-10-28T21:31:13.947Z,12.86
2022-10-28T21:36:18.465Z,13.02
2022-10-28T21:41:22.594Z,12.67
2022-10-28T21:46:24.475Z,12.66
2022-10-28T21:51:23.401Z,12.32
2022-10-28T21:56:24.588Z,12.52
2022-10-28T22:01:24.929Z,12.29
2022-10-28T22:06:25.626Z,12.33
2022-10-28T22:11:28.070Z,12.36
2022-10-28T22:16:29.632Z,12.14
2022-10-28T22:21:36.058Z,12.37
2022-10-28T22:26:43.934Z,12.39
2022-10-28T22:31:43.637Z,12.32
2022-10-28T22:36:45.098Z,12.39
2022-10-28T22:41:45.849Z,12.49
2022-10-28T22:46:45.001Z,12.44
2022-10-28T22:51:44.210Z,12.36
2022-10-28T22:56:45.629Z,12.30
2022-10-28T23:01:50.874Z,12.19
2022-10-28T23:06:53.024Z,12.30
2022-10-28T23:11:53.289Z,12.18
2022-10-28T23:16:58.154Z,12.35
2022-10-28T23:21:57.926Z,12.10
2022-10-28T23:31:58.103Z,12.24
2022-10-28T23:36:57.105Z,12.14
2022-10-28T23:41:56.808Z,12.04
2022-10-28T23:47:01.187Z,12.05
2022-10-28T23:51:58.666Z,11.95
2022-10-28T23:57:00.822Z,11.78
